sensor_id;sensor_type;location;lat;lon;timestamp;P1;durP1;ratioP1;P2;durP2;ratioP2
24483;SDS011;12643;51.620;7.548;2023-10-19T00:00:07;11.40;;;7.50;;
24483;SDS011;12643;51.620;7.548;2023-10-19T00:02:49;10.07;;;7.28;;
24483;SDS011;12643;51.620;7.548;2023-10-19T00:07:51;10.63;;;7.97;;
24483;SDS011;12643;51.620;7.548;2023-10-19T00:10:22;11.82;;;8.45;;
24483;SDS011;12643;51.620;7.548;2023-10-19T00:12:55;11.52;;;8.00;;
24483;SDS011;12643;51.620;7.548;2023-10-19T00:15:27;10.50;;;7.28;;
24483;SDS011;12643;51.620;7.548;2023-10-19T00:17:57;11.68;;;8.20;;
24483;SDS011;12643;51.620;7.548;2023-10-19T00:20:46;11.48;;;8.40;;
24483;SDS011;12643;51.620;7.548;2023-10-19T00:23:19;13.98;;;9.07;;
24483;SDS011;12643;51.620;7.548;2023-10-19T00:26:01;13.35;;;8.30;;
24483;SDS011;12643;51.620;7.548;2023-10-19T00:28:41;10.98;;;8.07;;
24483;SDS011;12643;51.620;7.548;2023-10-19T00:31:12;9.68;;;7.85;;
24483;SDS011;12643;51.620;7.548;2023-10-19T00:33:40;14.30;;;8.35;;
24483;SDS011;12643;51.620;7.548;2023-10-19T00:36:08;9.77;;;6.90;;
24483;SDS011;12643;51.620;7.548;2023-10-19T00:38:39;10.05;;;8.00;;
24483;SDS011;12643;51.620;7.548;2023-10-19T00:41:17;9.95;;;7.25;;
24483;SDS011;12643;51.620;7.548;2023-10-19T00:46:18;8.55;;;6.65;;
24483;SDS011;12643;51.620;7.548;2023-10-19T00:48:57;9.65;;;7.15;;
24483;SDS011;12643;51.620;7.548;2023-10-19T00:51:27;11.27;;;7.47;;
24483;SDS011;12643;51.620;7.548;2023-10-19T00:56:40;10.07;;;6.80;;
24483;SDS011;12643;51.620;7.548;2023-10-19T00:59:14;12.73;;;7.80;;
24483;SDS011;12643;51.620;7.548;2023-10-19T01:01:51;10.40;;;7.65;;
24483;SDS011;12643;51.620;7.548;2023-10-19T01:04:23;13.13;;;7.93;;
24483;SDS011;12643;51.620;7.548;2023-10-19T01:06:57;9.23;;;7.30;;
24483;SDS011;12643;51.620;7.548;2023-10-19T01:09:30;16.27;;;7.55;;
24483;SDS011;12643;51.620;7.548;2023-10-19T01:12:03;13.13;;;8.73;;
24483;SDS011;12643;51.620;7.548;2023-10-19T01:15:00;11.15;;;8.05;;
24483;SDS011;12643;51.620;7.548;2023-10-19T01:17:35;8.30;;;7.10;;
24483;SDS011;12643;51.620;7.548;2023-10-19T01:20:08;9.63;;;7.50;;
24483;SDS011;12643;51.620;7.548;2023-10-19T01:22:52;11.07;;;7.32;;
24483;SDS011;12643;51.620;7.548;2023-10-19T01:25:33;12.00;;;8.25;;
24483;SDS011;12643;51.620;7.548;2023-10-19T01:28:11;10.30;;;7.60;;
24483;SDS011;12643;51.620;7.548;2023-10-19T01:30:44;9.52;;;7.60;;
24483;SDS011;12643;51.620;7.548;2023-10-19T01:33:17;11.45;;;7.60;;
24483;SDS011;12643;51.620;7.548;2023-10-19T01:35:45;11.48;;;8.43;;
24483;SDS011;12643;51.620;7.548;2023-10-19T01:38:32;10.63;;;6.80;;
24483;SDS011;12643;51.620;7.548;2023-10-19T01:41:00;10.73;;;7.80;;
24483;SDS011;12643;51.620;7.548;2023-10-19T01:43:32;9.77;;;7.10;;
24483;SDS011;12643;51.620;7.548;2023-10-19T01:46:00;7.30;;;6.55;;
24483;SDS011;12643;51.620;7.548;2023-10-19T01:48:31;8.23;;;6.47;;
24483;SDS011;12643;51.620;7.548;2023-10-19T01:51:01;9.48;;;6.82;;
24483;SDS011;12643;51.620;7.548;2023-10-19T02:00:20;10.35;;;6.97;;
24483;SDS011;12643;51.620;7.548;2023-10-19T02:02:49;9.32;;;7.25;;
24483;SDS011;12643;51.620;7.548;2023-10-19T02:05:18;8.63;;;7.25;;
24483;SDS011;12643;51.620;7.548;2023-10-19T02:07:58;9.90;;;7.35;;
24483;SDS011;12643;51.620;7.548;2023-10-19T02:10:26;9.95;;;8.30;;
24483;SDS011;12643;51.620;7.548;2023-10-19T02:12:58;11.30;;;7.75;;
24483;SDS011;12643;51.620;7.548;2023-10-19T02:15:27;10.77;;;7.15;;
24483;SDS011;12643;51.620;7.548;2023-10-19T02:17:57;10.73;;;7.97;;
24483;SDS011;12643;51.620;7.548;2023-10-19T02:20:25;10.75;;;7.72;;
24483;SDS011;12643;51.620;7.548;2023-10-19T02:22:54;12.90;;;8.95;;
24483;SDS011;12643;51.620;7.548;2023-10-19T02:25:25;9.88;;;8.45;;
24483;SDS011;12643;51.620;7.548;2023-10-19T02:27:56;10.70;;;8.20;;
24483;SDS011;12643;51.620;7.548;2023-10-19T02:30:24;9.38;;;8.10;;
24483;SDS011;12643;51.620;7.548;2023-10-19T02:32:57;10.18;;;8.70;;
24483;SDS011;12643;51.620;7.548;2023-10-19T02:35:24;11.55;;;8.02;;
24483;SDS011;12643;51.620;7.548;2023-10-19T02:37:53;9.60;;;7.63;;
24483;SDS011;12643;51.620;7.548;2023-10-19T02:40:20;8.80;;;6.70;;
24483;SDS011;12643;51.620;7.548;2023-10-19T02:42:50;8.35;;;7.00;;
24483;SDS011;12643;51.620;7.548;2023-10-19T02:45:19;9.45;;;7.43;;
24483;SDS011;12643;51.620;7.548;2023-10-19T02:47:50;10.07;;;7.60;;
24483;SDS011;12643;51.620;7.548;2023-10-19T02:50:18;8.85;;;7.07;;
24483;SDS011;12643;51.620;7.548;2023-10-19T02:52:52;8.40;;;6.60;;
24483;SDS011;12643;51.620;7.548;2023-10-19T02:55:19;8.23;;;6.68;;
24483;SDS011;12643;51.620;7.548;2023-10-19T02:57:49;8.65;;;7.32;;
24483;SDS011;12643;51.620;7.548;2023-10-19T03:00:16;9.85;;;7.50;;
24483;SDS011;12643;51.620;7.548;2023-10-19T03:02:48;10.45;;;7.50;;
24483;SDS011;12643;51.620;7.548;2023-10-19T03:05:17;10.25;;;8.50;;
24483;SDS011;12643;51.620;7.548;2023-10-19T03:07:46;13.35;;;8.65;;
24483;SDS011;12643;51.620;7.548;2023-10-19T03:10:15;12.20;;;8.65;;
24483;SDS011;12643;51.620;7.548;2023-10-19T03:12:49;14.20;;;9.93;;
24483;SDS011;12643;51.620;7.548;2023-10-19T03:15:18;16.75;;;10.23;;
24483;SDS011;12643;51.620;7.548;2023-10-19T03:17:47;22.20;;;13.25;;
24483;SDS011;12643;51.620;7.548;2023-10-19T03:20:16;27.35;;;14.73;;
24483;SDS011;12643;51.620;7.548;2023-10-19T03:22:49;26.80;;;15.82;;
24483;SDS011;12643;51.620;7.548;2023-10-19T03:25:17;24.30;;;14.68;;
24483;SDS011;12643;51.620;7.548;2023-10-19T03:28:03;30.52;;;17.27;;
24483;SDS011;12643;51.620;7.548;2023-10-19T03:30:37;35.55;;;19.45;;
24483;SDS011;12643;51.620;7.548;2023-10-19T03:33:08;26.85;;;15.63;;
24483;SDS011;12643;51.620;7.548;2023-10-19T03:35:38;20.60;;;15.05;;
24483;SDS011;12643;51.620;7.548;2023-10-19T03:38:11;24.02;;;14.80;;
24483;SDS011;12643;51.620;7.548;2023-10-19T03:40:43;22.70;;;14.15;;
24483;SDS011;12643;51.620;7.548;2023-10-19T03:43:17;21.50;;;13.25;;
24483;SDS011;12643;51.620;7.548;2023-10-19T03:45:49;13.45;;;9.27;;
24483;SDS011;12643;51.620;7.548;2023-10-19T03:48:19;14.80;;;9.82;;
24483;SDS011;12643;51.620;7.548;2023-10-19T03:50:52;12.98;;;7.68;;
24483;SDS011;12643;51.620;7.548;2023-10-19T03:53:21;8.27;;;6.43;;
24483;SDS011;12643;51.620;7.548;2023-10-19T03:55:52;11.25;;;6.45;;
24483;SDS011;12643;51.620;7.548;2023-10-19T03:58:21;10.15;;;6.57;;
24483;SDS011;12643;51.620;7.548;2023-10-19T04:00:56;7.45;;;6.15;;
24483;SDS011;12643;51.620;7.548;2023-10-19T04:03:31;8.20;;;6.20;;
24483;SDS011;12643;51.620;7.548;2023-10-19T04:06:02;9.85;;;6.55;;
24483;SDS011;12643;51.620;7.548;2023-10-19T04:08:32;7.72;;;5.93;;
24483;SDS011;12643;51.620;7.548;2023-10-19T04:11:03;7.20;;;5.72;;
24483;SDS011;12643;51.620;7.548;2023-10-19T04:13:48;7.95;;;5.38;;
24483;SDS011;12643;51.620;7.548;2023-10-19T04:16:19;9.80;;;4.75;;
24483;SDS011;12643;51.620;7.548;2023-10-19T04:18:49;8.85;;;5.53;;
24483;SDS011;12643;51.620;7.548;2023-10-19T04:21:17;9.48;;;5.28;;
24483;SDS011;12643;51.620;7.548;2023-10-19T04:23:45;10.38;;;5.95;;
24483;SDS011;12643;51.620;7.548;2023-10-19T04:26:13;7.60;;;4.75;;
24483;SDS011;12643;51.620;7.548;2023-10-19T04:28:44;9.20;;;4.95;;
24483;SDS011;12643;51.620;7.548;2023-10-19T04:31:16;5.60;;;4.75;;
24483;SDS011;12643;51.620;7.548;2023-10-19T04:33:45;6.85;;;5.00;;
24483;SDS011;12643;51.620;7.548;2023-10-19T04:36:14;7.18;;;4.82;;
24483;SDS011;12643;51.620;7.548;2023-10-19T04:38:46;4.93;;;4.38;;
24483;SDS011;12643;51.620;7.548;2023-10-19T04:41:17;6.88;;;4.47;;
24483;SDS011;12643;51.620;7.548;2023-10-19T04:43:45;6.68;;;5.53;;
24483;SDS011;12643;51.620;7.548;2023-10-19T04:46:17;6.25;;;5.13;;
24483;SDS011;12643;51.620;7.548;2023-10-19T04:48:49;5.13;;;4.63;;
24483;SDS011;12643;51.620;7.548;2023-10-19T04:51:18;8.73;;;5.13;;
24483;SDS011;12643;51.620;7.548;2023-10-19T04:53:47;6.43;;;4.43;;
24483;SDS011;12643;51.620;7.548;2023-10-19T04:56:18;6.03;;;5.10;;
24483;SDS011;12643;51.620;7.548;2023-10-19T04:58:48;6.53;;;5.63;;
24483;SDS011;12643;51.620;7.548;2023-10-19T05:01:16;12.60;;;6.50;;
24483;SDS011;12643;51.620;7.548;2023-10-19T05:03:44;8.77;;;5.65;;
24483;SDS011;12643;51.620;7.548;2023-10-19T05:06:15;11.80;;;5.68;;
24483;SDS011;12643;51.620;7.548;2023-10-19T05:08:44;6.53;;;4.72;;
24483;SDS011;12643;51.620;7.548;2023-10-19T05:11:18;6.70;;;5.28;;
24483;SDS011;12643;51.620;7.548;2023-10-19T05:13:47;6.47;;;4.40;;
24483;SDS011;12643;51.620;7.548;2023-10-19T05:16:15;7.00;;;5.07;;
24483;SDS011;12643;51.620;7.548;2023-10-19T05:18:43;11.63;;;5.05;;
24483;SDS011;12643;51.620;7.548;2023-10-19T05:21:11;5.97;;;3.95;;
24483;SDS011;12643;51.620;7.548;2023-10-19T05:23:49;7.43;;;4.75;;
24483;SDS011;12643;51.620;7.548;2023-10-19T05:26:17;7.88;;;4.32;;
24483;SDS011;12643;51.620;7.548;2023-10-19T05:28:45;9.88;;;4.72;;
24483;SDS011;12643;51.620;7.548;2023-10-19T05:31:14;7.18;;;4.38;;
24483;SDS011;12643;51.620;7.548;2023-10-19T05:33:42;8.40;;;4.70;;
24483;SDS011;12643;51.620;7.548;2023-10-19T05:36:19;6.60;;;4.55;;
24483;SDS011;12643;51.620;7.548;2023-10-19T05:38:49;5.63;;;4.55;;
24483;SDS011;12643;51.620;7.548;2023-10-19T05:41:25;9.73;;;4.85;;
24483;SDS011;12643;51.620;7.548;2023-10-19T05:43:55;10.60;;;5.10;;
24483;SDS011;12643;51.620;7.548;2023-10-19T05:46:23;9.35;;;4.97;;
24483;SDS011;12643;51.620;7.548;2023-10-19T05:48:57;9.23;;;5.35;;
24483;SDS011;12643;51.620;7.548;2023-10-19T05:51:29;8.07;;;4.90;;
24483;SDS011;12643;51.620;7.548;2023-10-19T05:54:00;9.10;;;4.18;;
24483;SDS011;12643;51.620;7.548;2023-10-19T05:56:29;7.67;;;4.70;;
24483;SDS011;12643;51.620;7.548;2023-10-19T05:58:59;8.85;;;4.50;;
24483;SDS011;12643;51.620;7.548;2023-10-19T06:01:27;11.57;;;4.43;;
24483;SDS011;12643;51.620;7.548;2023-10-19T06:03:59;7.38;;;4.53;;
24483;SDS011;12643;51.620;7.548;2023-10-19T06:06:29;10.75;;;4.80;;
24483;SDS011;12643;51.620;7.548;2023-10-19T06:08:57;6.40;;;4.30;;
24483;SDS011;12643;51.620;7.548;2023-10-19T06:11:28;6.82;;;4.15;;
24483;SDS011;12643;51.620;7.548;2023-10-19T06:13:58;8.73;;;4.80;;
24483;SDS011;12643;51.620;7.548;2023-10-19T06:19:12;5.93;;;4.30;;
24483;SDS011;12643;51.620;7.548;2023-10-19T06:21:45;5.72;;;4.85;;
24483;SDS011;12643;51.620;7.548;2023-10-19T06:29:41;5.93;;;4.53;;
24483;SDS011;12643;51.620;7.548;2023-10-19T06:32:11;5.28;;;4.78;;
24483;SDS011;12643;51.620;7.548;2023-10-19T06:34:40;6.10;;;5.50;;
24483;SDS011;12643;51.620;7.548;2023-10-19T06:37:08;6.50;;;5.05;;
24483;SDS011;12643;51.620;7.548;2023-10-19T06:39:37;6.32;;;4.90;;
24483;SDS011;12643;51.620;7.548;2023-10-19T06:42:07;5.85;;;5.07;;
24483;SDS011;12643;51.620;7.548;2023-10-19T06:44:42;7.55;;;6.10;;
24483;SDS011;12643;51.620;7.548;2023-10-19T06:47:19;5.53;;;4.72;;
24483;SDS011;12643;51.620;7.548;2023-10-19T06:52:19;6.80;;;5.95;;
24483;SDS011;12643;51.620;7.548;2023-10-19T06:54:47;6.20;;;5.32;;
24483;SDS011;12643;51.620;7.548;2023-10-19T06:57:15;7.63;;;6.13;;
24483;SDS011;12643;51.620;7.548;2023-10-19T06:59:51;6.70;;;6.00;;
24483;SDS011;12643;51.620;7.548;2023-10-19T07:02:19;6.93;;;5.70;;
24483;SDS011;12643;51.620;7.548;2023-10-19T07:04:48;9.30;;;6.63;;
24483;SDS011;12643;51.620;7.548;2023-10-19T07:07:16;7.70;;;6.70;;
24483;SDS011;12643;51.620;7.548;2023-10-19T07:09:44;8.43;;;6.38;;
24483;SDS011;12643;51.620;7.548;2023-10-19T07:12:12;9.82;;;6.75;;
24483;SDS011;12643;51.620;7.548;2023-10-19T07:14:43;10.27;;;6.10;;
24483;SDS011;12643;51.620;7.548;2023-10-19T07:17:13;11.40;;;6.10;;
24483;SDS011;12643;51.620;7.548;2023-10-19T07:19:42;9.35;;;6.55;;
24483;SDS011;12643;51.620;7.548;2023-10-19T07:22:14;6.78;;;5.65;;
24483;SDS011;12643;51.620;7.548;2023-10-19T07:24:42;10.13;;;6.60;;
24483;SDS011;12643;51.620;7.548;2023-10-19T07:27:12;10.23;;;6.22;;
24483;SDS011;12643;51.620;7.548;2023-10-19T07:29:44;7.10;;;6.32;;
24483;SDS011;12643;51.620;7.548;2023-10-19T07:32:14;9.85;;;5.93;;
24483;SDS011;12643;51.620;7.548;2023-10-19T07:34:42;7.38;;;6.30;;
24483;SDS011;12643;51.620;7.548;2023-10-19T07:37:14;7.55;;;6.28;;
24483;SDS011;12643;51.620;7.548;2023-10-19T07:39:47;12.32;;;6.63;;
24483;SDS011;12643;51.620;7.548;2023-10-19T07:42:18;8.57;;;6.55;;
24483;SDS011;12643;51.620;7.548;2023-10-19T07:44:49;6.68;;;5.32;;
24483;SDS011;12643;51.620;7.548;2023-10-19T07:47:17;9.90;;;6.63;;
24483;SDS011;12643;51.620;7.548;2023-10-19T07:49:46;8.95;;;6.25;;
24483;SDS011;12643;51.620;7.548;2023-10-19T07:54:46;7.32;;;5.57;;
24483;SDS011;12643;51.620;7.548;2023-10-19T07:57:16;9.27;;;7.10;;
24483;SDS011;12643;51.620;7.548;2023-10-19T07:59:49;8.50;;;6.50;;
24483;SDS011;12643;51.620;7.548;2023-10-19T08:02:17;8.27;;;6.10;;
24483;SDS011;12643;51.620;7.548;2023-10-19T08:04:49;7.40;;;5.95;;
24483;SDS011;12643;51.620;7.548;2023-10-19T08:09:48;8.85;;;5.85;;
24483;SDS011;12643;51.620;7.548;2023-10-19T08:12:17;10.63;;;6.20;;
24483;SDS011;12643;51.620;7.548;2023-10-19T08:14:45;8.07;;;5.88;;
24483;SDS011;12643;51.620;7.548;2023-10-19T08:17:22;9.80;;;6.32;;
24483;SDS011;12643;51.620;7.548;2023-10-19T08:19:52;8.90;;;5.47;;
24483;SDS011;12643;51.620;7.548;2023-10-19T08:24:52;8.07;;;5.25;;
24483;SDS011;12643;51.620;7.548;2023-10-19T08:27:25;8.95;;;5.88;;
24483;SDS011;12643;51.620;7.548;2023-10-19T08:29:54;10.55;;;6.20;;
24483;SDS011;12643;51.620;7.548;2023-10-19T08:32:24;7.50;;;5.57;;
24483;SDS011;12643;51.620;7.548;2023-10-19T08:34:53;9.32;;;6.18;;
24483;SDS011;12643;51.620;7.548;2023-10-19T08:37:22;9.40;;;5.57;;
24483;SDS011;12643;51.620;7.548;2023-10-19T08:39:51;11.90;;;6.93;;
24483;SDS011;12643;51.620;7.548;2023-10-19T08:42:19;13.93;;;7.78;;
24483;SDS011;12643;51.620;7.548;2023-10-19T08:44:47;11.77;;;7.75;;
24483;SDS011;12643;51.620;7.548;2023-10-19T08:47:15;11.48;;;8.13;;
24483;SDS011;12643;51.620;7.548;2023-10-19T08:49:45;11.10;;;7.15;;
24483;SDS011;12643;51.620;7.548;2023-10-19T08:52:14;13.18;;;7.43;;
24483;SDS011;12643;51.620;7.548;2023-10-19T08:54:44;14.40;;;7.00;;
24483;SDS011;12643;51.620;7.548;2023-10-19T08:57:19;9.48;;;5.65;;
24483;SDS011;12643;51.620;7.548;2023-10-19T08:59:48;8.82;;;5.60;;
24483;SDS011;12643;51.620;7.548;2023-10-19T09:02:16;10.25;;;5.28;;
24483;SDS011;12643;51.620;7.548;2023-10-19T09:04:47;9.38;;;5.43;;
24483;SDS011;12643;51.620;7.548;2023-10-19T09:07:16;6.05;;;4.70;;
24483;SDS011;12643;51.620;7.548;2023-10-19T09:09:45;7.30;;;4.95;;
24483;SDS011;12643;51.620;7.548;2023-10-19T09:12:15;7.28;;;5.70;;
24483;SDS011;12643;51.620;7.548;2023-10-19T09:14:45;8.17;;;5.40;;
24483;SDS011;12643;51.620;7.548;2023-10-19T09:17:16;7.68;;;5.20;;
24483;SDS011;12643;51.620;7.548;2023-10-19T09:19:59;12.40;;;5.45;;
24483;SDS011;12643;51.620;7.548;2023-10-19T09:22:35;10.95;;;5.45;;
24483;SDS011;12643;51.620;7.548;2023-10-19T09:25:10;10.20;;;5.18;;
24483;SDS011;12643;51.620;7.548;2023-10-19T09:27:37;10.38;;;5.88;;
24483;SDS011;12643;51.620;7.548;2023-10-19T09:30:06;6.28;;;4.28;;
24483;SDS011;12643;51.620;7.548;2023-10-19T09:32:38;5.85;;;4.45;;
24483;SDS011;12643;51.620;7.548;2023-10-19T09:35:09;6.68;;;4.93;;
24483;SDS011;12643;51.620;7.548;2023-10-19T09:37:41;6.85;;;4.47;;
24483;SDS011;12643;51.620;7.548;2023-10-19T09:40:09;10.95;;;4.60;;
24483;SDS011;12643;51.620;7.548;2023-10-19T09:42:40;8.02;;;4.40;;
24483;SDS011;12643;51.620;7.548;2023-10-19T09:45:19;8.68;;;4.10;;
24483;SDS011;12643;51.620;7.548;2023-10-19T09:47:50;7.75;;;4.25;;
24483;SDS011;12643;51.620;7.548;2023-10-19T09:50:21;5.28;;;4.28;;
24483;SDS011;12643;51.620;7.548;2023-10-19T09:52:52;7.70;;;4.35;;
24483;SDS011;12643;51.620;7.548;2023-10-19T09:55:22;7.30;;;4.28;;
24483;SDS011;12643;51.620;7.548;2023-10-19T09:57:55;8.35;;;4.22;;
24483;SDS011;12643;51.620;7.548;2023-10-19T10:00:28;6.70;;;4.47;;
24483;SDS011;12643;51.620;7.548;2023-10-19T10:03:00;6.93;;;4.57;;
24483;SDS011;12643;51.620;7.548;2023-10-19T10:05:49;7.07;;;4.40;;
24483;SDS011;12643;51.620;7.548;2023-10-19T10:08:32;6.30;;;3.67;;
24483;SDS011;12643;51.620;7.548;2023-10-19T10:11:13;5.85;;;3.97;;
24483;SDS011;12643;51.620;7.548;2023-10-19T10:13:46;5.80;;;4.00;;
24483;SDS011;12643;51.620;7.548;2023-10-19T10:16:18;4.78;;;3.30;;
24483;SDS011;12643;51.620;7.548;2023-10-19T10:18:49;5.55;;;3.58;;
24483;SDS011;12643;51.620;7.548;2023-10-19T10:21:26;9.15;;;4.30;;
24483;SDS011;12643;51.620;7.548;2023-10-19T10:23:56;7.65;;;3.60;;
24483;SDS011;12643;51.620;7.548;2023-10-19T10:26:27;7.05;;;3.35;;
24483;SDS011;12643;51.620;7.548;2023-10-19T10:29:07;6.85;;;3.47;;
24483;SDS011;12643;51.620;7.548;2023-10-19T10:31:42;6.28;;;3.10;;
24483;SDS011;12643;51.620;7.548;2023-10-19T10:39:59;5.70;;;2.83;;
24483;SDS011;12643;51.620;7.548;2023-10-19T10:42:29;5.68;;;3.03;;
24483;SDS011;12643;51.620;7.548;2023-10-19T10:45:00;3.23;;;2.50;;
24483;SDS011;12643;51.620;7.548;2023-10-19T10:50:01;4.63;;;3.33;;
24483;SDS011;12643;51.620;7.548;2023-10-19T10:52:33;6.23;;;2.63;;
24483;SDS011;12643;51.620;7.548;2023-10-19T10:55:06;8.48;;;2.95;;
24483;SDS011;12643;51.620;7.548;2023-10-19T10:57:38;9.32;;;2.90;;
24483;SDS011;12643;51.620;7.548;2023-10-19T11:00:08;6.05;;;3.25;;
24483;SDS011;12643;51.620;7.548;2023-10-19T11:02:44;6.82;;;3.30;;
24483;SDS011;12643;51.620;7.548;2023-10-19T11:05:24;6.20;;;3.20;;
24483;SDS011;12643;51.620;7.548;2023-10-19T11:08:06;10.18;;;2.80;;
24483;SDS011;12643;51.620;7.548;2023-10-19T11:10:37;5.78;;;3.10;;
24483;SDS011;12643;51.620;7.548;2023-10-19T11:13:08;8.52;;;2.97;;
24483;SDS011;12643;51.620;7.548;2023-10-19T11:15:37;7.97;;;3.20;;
24483;SDS011;12643;51.620;7.548;2023-10-19T11:18:27;6.10;;;2.50;;
24483;SDS011;12643;51.620;7.548;2023-10-19T11:20:56;8.73;;;2.90;;
24483;SDS011;12643;51.620;7.548;2023-10-19T11:23:41;5.28;;;2.60;;
24483;SDS011;12643;51.620;7.548;2023-10-19T11:26:12;5.93;;;2.42;;
24483;SDS011;12643;51.620;7.548;2023-10-19T11:28:45;8.10;;;2.80;;
24483;SDS011;12643;51.620;7.548;2023-10-19T11:31:25;5.47;;;2.53;;
24483;SDS011;12643;51.620;7.548;2023-10-19T11:33:54;8.55;;;2.53;;
24483;SDS011;12643;51.620;7.548;2023-10-19T11:36:22;9.80;;;2.65;;
24483;SDS011;12643;51.620;7.548;2023-10-19T11:38:53;5.15;;;2.20;;
24483;SDS011;12643;51.620;7.548;2023-10-19T11:41:22;6.43;;;2.60;;
24483;SDS011;12643;51.620;7.548;2023-10-19T11:43:50;7.78;;;2.45;;
24483;SDS011;12643;51.620;7.548;2023-10-19T11:46:19;8.95;;;2.28;;
24483;SDS011;12643;51.620;7.548;2023-10-19T11:48:48;8.20;;;2.47;;
24483;SDS011;12643;51.620;7.548;2023-10-19T11:51:17;6.35;;;1.83;;
24483;SDS011;12643;51.620;7.548;2023-10-19T11:53:46;5.82;;;2.03;;
24483;SDS011;12643;51.620;7.548;2023-10-19T11:56:16;7.47;;;1.90;;
24483;SDS011;12643;51.620;7.548;2023-10-19T11:58:46;5.97;;;2.13;;
24483;SDS011;12643;51.620;7.548;2023-10-19T12:01:14;8.85;;;2.03;;
24483;SDS011;12643;51.620;7.548;2023-10-19T12:03:42;6.00;;;2.03;;
24483;SDS011;12643;51.620;7.548;2023-10-19T12:06:12;12.57;;;2.33;;
24483;SDS011;12643;51.620;7.548;2023-10-19T12:08:44;5.47;;;1.98;;
24483;SDS011;12643;51.620;7.548;2023-10-19T12:11:13;8.38;;;1.45;;
24483;SDS011;12643;51.620;7.548;2023-10-19T12:13:44;7.80;;;2.15;;
24483;SDS011;12643;51.620;7.548;2023-10-19T12:16:15;9.18;;;2.15;;
24483;SDS011;12643;51.620;7.548;2023-10-19T12:18:46;9.52;;;1.65;;
24483;SDS011;12643;51.620;7.548;2023-10-19T12:21:15;9.15;;;1.83;;
24483;SDS011;12643;51.620;7.548;2023-10-19T12:23:54;6.32;;;1.70;;
24483;SDS011;12643;51.620;7.548;2023-10-19T12:26:23;5.05;;;1.58;;
24483;SDS011;12643;51.620;7.548;2023-10-19T12:28:51;6.90;;;2.17;;
24483;SDS011;12643;51.620;7.548;2023-10-19T12:31:19;6.82;;;2.33;;
24483;SDS011;12643;51.620;7.548;2023-10-19T12:33:49;5.80;;;2.20;;
24483;SDS011;12643;51.620;7.548;2023-10-19T12:36:17;9.13;;;2.13;;
24483;SDS011;12643;51.620;7.548;2023-10-19T12:38:56;8.05;;;1.95;;
24483;SDS011;12643;51.620;7.548;2023-10-19T12:41:29;8.57;;;1.77;;
24483;SDS011;12643;51.620;7.548;2023-10-19T12:43:57;4.03;;;1.77;;
24483;SDS011;12643;51.620;7.548;2023-10-19T12:46:27;5.72;;;2.20;;
24483;SDS011;12643;51.620;7.548;2023-10-19T12:48:56;6.72;;;2.10;;
24483;SDS011;12643;51.620;7.548;2023-10-19T12:51:25;6.50;;;1.88;;
24483;SDS011;12643;51.620;7.548;2023-10-19T12:53:53;4.75;;;1.50;;
24483;SDS011;12643;51.620;7.548;2023-10-19T12:56:23;9.90;;;2.08;;
24483;SDS011;12643;51.620;7.548;2023-10-19T12:58:56;8.70;;;1.92;;
24483;SDS011;12643;51.620;7.548;2023-10-19T13:01:25;7.25;;;1.83;;
24483;SDS011;12643;51.620;7.548;2023-10-19T13:03:54;8.45;;;1.80;;
24483;SDS011;12643;51.620;7.548;2023-10-19T13:06:23;6.10;;;1.63;;
24483;SDS011;12643;51.620;7.548;2023-10-19T13:08:54;6.10;;;1.90;;
24483;SDS011;12643;51.620;7.548;2023-10-19T13:11:23;9.02;;;1.90;;
24483;SDS011;12643;51.620;7.548;2023-10-19T13:13:53;4.82;;;2.05;;
24483;SDS011;12643;51.620;7.548;2023-10-19T13:16:23;9.60;;;2.05;;
24483;SDS011;12643;51.620;7.548;2023-10-19T13:18:51;4.60;;;1.60;;
24483;SDS011;12643;51.620;7.548;2023-10-19T13:21:19;4.18;;;1.77;;
24483;SDS011;12643;51.620;7.548;2023-10-19T13:23:55;11.07;;;2.20;;
24483;SDS011;12643;51.620;7.548;2023-10-19T13:26:23;6.82;;;1.90;;
24483;SDS011;12643;51.620;7.548;2023-10-19T13:28:51;8.63;;;2.22;;
24483;SDS011;12643;51.620;7.548;2023-10-19T13:31:23;9.20;;;2.10;;
24483;SDS011;12643;51.620;7.548;2023-10-19T13:33:52;6.88;;;2.42;;
24483;SDS011;12643;51.620;7.548;2023-10-19T13:36:20;8.88;;;2.30;;
24483;SDS011;12643;51.620;7.548;2023-10-19T13:38:49;9.32;;;2.30;;
24483;SDS011;12643;51.620;7.548;2023-10-19T13:41:19;5.03;;;1.98;;
24483;SDS011;12643;51.620;7.548;2023-10-19T13:43:47;3.67;;;2.03;;
24483;SDS011;12643;51.620;7.548;2023-10-19T13:46:16;6.07;;;2.17;;
24483;SDS011;12643;51.620;7.548;2023-10-19T13:48:47;5.85;;;2.00;;
24483;SDS011;12643;51.620;7.548;2023-10-19T13:51:16;7.15;;;2.28;;
24483;SDS011;12643;51.620;7.548;2023-10-19T13:53:45;6.78;;;2.80;;
24483;SDS011;12643;51.620;7.548;2023-10-19T13:56:13;5.45;;;2.55;;
24483;SDS011;12643;51.620;7.548;2023-10-19T13:58:41;5.20;;;2.45;;
24483;SDS011;12643;51.620;7.548;2023-10-19T14:01:12;5.45;;;2.22;;
24483;SDS011;12643;51.620;7.548;2023-10-19T14:03:43;4.68;;;2.55;;
24483;SDS011;12643;51.620;7.548;2023-10-19T14:06:12;6.80;;;2.65;;
24483;SDS011;12643;51.620;7.548;2023-10-19T14:08:41;6.10;;;2.97;;
24483;SDS011;12643;51.620;7.548;2023-10-19T14:11:10;6.80;;;2.85;;
24483;SDS011;12643;51.620;7.548;2023-10-19T14:13:39;5.75;;;2.88;;
24483;SDS011;12643;51.620;7.548;2023-10-19T14:16:08;4.35;;;2.85;;
24483;SDS011;12643;51.620;7.548;2023-10-19T14:18:36;4.75;;;2.45;;
24483;SDS011;12643;51.620;7.548;2023-10-19T14:21:13;5.60;;;2.55;;
24483;SDS011;12643;51.620;7.548;2023-10-19T14:23:44;7.32;;;2.90;;
24483;SDS011;12643;51.620;7.548;2023-10-19T14:26:14;6.32;;;2.92;;
24483;SDS011;12643;51.620;7.548;2023-10-19T14:28:43;7.18;;;2.90;;
24483;SDS011;12643;51.620;7.548;2023-10-19T14:31:11;5.03;;;2.70;;
24483;SDS011;12643;51.620;7.548;2023-10-19T14:33:40;5.22;;;2.38;;
24483;SDS011;12643;51.620;7.548;2023-10-19T14:36:09;6.20;;;2.70;;
24483;SDS011;12643;51.620;7.548;2023-10-19T14:38:41;9.50;;;3.15;;
24483;SDS011;12643;51.620;7.548;2023-10-19T14:41:10;8.90;;;2.85;;
24483;SDS011;12643;51.620;7.548;2023-10-19T14:43:40;10.80;;;2.65;;
24483;SDS011;12643;51.620;7.548;2023-10-19T14:46:08;7.65;;;2.67;;
24483;SDS011;12643;51.620;7.548;2023-10-19T14:48:36;7.82;;;2.10;;
24483;SDS011;12643;51.620;7.548;2023-10-19T14:51:07;8.45;;;2.72;;
24483;SDS011;12643;51.620;7.548;2023-10-19T14:53:35;10.93;;;2.78;;
24483;SDS011;12643;51.620;7.548;2023-10-19T14:56:05;8.88;;;2.50;;
24483;SDS011;12643;51.620;7.548;2023-10-19T14:58:33;6.83;;;2.37;;
24483;SDS011;12643;51.620;7.548;2023-10-19T15:01:02;7.28;;;2.40;;
24483;SDS011;12643;51.620;7.548;2023-10-19T15:03:32;6.25;;;2.38;;
24483;SDS011;12643;51.620;7.548;2023-10-19T15:06:00;4.68;;;2.10;;
24483;SDS011;12643;51.620;7.548;2023-10-19T15:08:30;9.77;;;3.15;;
24483;SDS011;12643;51.620;7.548;2023-10-19T15:10:58;5.22;;;2.30;;
24483;SDS011;12643;51.620;7.548;2023-10-19T15:13:29;5.85;;;2.47;;
24483;SDS011;12643;51.620;7.548;2023-10-19T15:16:06;5.10;;;2.58;;
24483;SDS011;12643;51.620;7.548;2023-10-19T15:18:35;10.43;;;2.70;;
24483;SDS011;12643;51.620;7.548;2023-10-19T15:21:08;7.15;;;2.67;;
24483;SDS011;12643;51.620;7.548;2023-10-19T15:23:37;10.73;;;2.80;;
24483;SDS011;12643;51.620;7.548;2023-10-19T15:26:07;4.47;;;2.17;;
24483;SDS011;12643;51.620;7.548;2023-10-19T15:28:37;8.77;;;2.20;;
24483;SDS011;12643;51.620;7.548;2023-10-19T15:31:06;13.07;;;3.10;;
24483;SDS011;12643;51.620;7.548;2023-10-19T15:33:35;5.32;;;3.47;;
24483;SDS011;12643;51.620;7.548;2023-10-19T15:36:04;6.72;;;3.30;;
24483;SDS011;12643;51.620;7.548;2023-10-19T15:38:32;7.20;;;3.53;;
24483;SDS011;12643;51.620;7.548;2023-10-19T15:41:00;5.82;;;2.85;;
24483;SDS011;12643;51.620;7.548;2023-10-19T15:43:29;5.18;;;2.70;;
24483;SDS011;12643;51.620;7.548;2023-10-19T15:45:59;5.00;;;2.45;;